Terminal Aerodrome Forecast
Issued by NWS Albany, NY

Home | Current Version | Previous Version | Text Only | Print | Product List | Glossary On
Versions: 1 2 3 4 5 6 7 8 9 10 11 12 13 14 15 16 17 18 19 20
000
FTUS41 KALY 272300
TAFALB
TAF
KALB 272330Z 2800/2824 VRB03KT P6SM BKN200
     FM280500 18007KT P6SM OVC060
     FM280700 19007KT P6SM VCSH OVC060
     FM280900 19005KT 6SM -SHRA BR OVC040
     FM281100 19005KT P6SM VCSH OVC030
     FM281700 28010G20KT P6SM BKN035
     FM282200 29010G20KT P6SM SCT035 BKN150=

USA.gov is the U.S. government's official web portal to all federal, state and local government web resources and services.